Time;durP1;ratioP1;P1;durP2;ratioP2;P2;SDS_P1;SDS_P2;PMS_P1;PMS_P2;Temp;Humidity;BMP_temperature;BMP_pressure;BME280_temperature;BME280_humidity;BME280_pressure;Samples;Min_cycle;Max_cycle;Signal;HPM_P1;HPM_P2
2022/09/18 00:00:51;;;;;;;0.73;0.60;;;;;;;19.84;58.65;96057.97;10292727;28;20077;-54
2022/09/18 00:06:32;;;;;;;0.63;0.63;;;;;;;19.83;58.66;96061.03;10291792;28;20553;-54
2022/09/18 00:11:51;;;;;;;1.70;0.80;;;;;;;19.83;58.72;96050.22;10325822;28;20130;-54
2022/09/18 00:17:11;;;;;;;0.65;0.65;;;;;;;19.82;58.66;96051.38;10303619;28;20100;-54
2022/09/18 00:22:30;;;;;;;0.40;0.40;;;;;;;19.82;58.67;96040.56;10298389;28;20147;-53
2022/09/18 00:27:50;;;;;;;0.50;0.50;;;;;;;19.80;58.66;96040.88;10305684;28;20109;-54
2022/09/18 00:33:09;;;;;;;1.05;0.80;;;;;;;19.79;58.74;96049.34;10308785;28;20504;-54
2022/09/18 00:38:30;;;;;;;1.52;0.73;;;;;;;19.79;58.74;96036.59;10337436;28;20045;-54
2022/09/18 00:43:51;;;;;;;0.60;0.57;;;;;;;19.78;58.70;96050.44;10303212;28;20046;-54
2022/09/18 00:49:14;;;;;;;0.80;0.80;;;;;;;19.78;58.65;96039.63;10313893;28;20058;-54
2022/09/18 00:54:40;;;;;;;0.63;0.60;;;;;;;19.77;58.62;96052.38;10313317;28;20054;-54
2022/09/18 01:00:04;;;;;;;0.85;0.60;;;;;;;19.76;58.71;96045.41;10301661;28;20418;-55
2022/09/18 01:05:55;;;;;;;0.50;0.50;;;;;;;19.75;58.65;96049.22;10310676;28;20058;-61
2022/09/18 01:11:30;;;;;;;0.90;0.65;;;;;;;19.74;58.67;96047.66;10318276;28;20442;-62
2022/09/18 01:16:58;;;;;;;0.70;0.68;;;;;;;19.74;58.65;96056.56;10297924;28;20064;-62
2022/09/18 01:22:54;;;;;;;19.95;1.65;;;;;;;19.72;58.60;96050.72;10270531;28;20059;-62
2022/09/18 01:28:20;;;;;;;0.60;0.60;;;;;;;19.71;58.71;96054.53;10304118;28;20391;-62
2022/09/18 01:33:53;;;;;;;0.90;0.65;;;;;;;19.70;58.66;96052.94;10290866;28;20062;-62
2022/09/18 01:39:44;;;;;;;0.82;0.60;;;;;;;19.69;58.61;96059.47;10293068;28;20129;-61
2022/09/18 01:45:08;;;;;;;0.90;0.60;;;;;;;19.69;58.69;96050.56;10213373;28;20069;-61
2022/09/18 01:50:31;;;;;;;0.50;0.40;;;;;;;19.69;58.70;96050.56;10269653;28;20054;-61
2022/09/18 01:55:56;;;;;;;0.63;0.60;;;;;;;19.68;58.64;96054.38;10277146;28;20047;-61
2022/09/18 02:01:18;;;;;;;0.50;0.50;;;;;;;19.67;58.65;96055.53;10273023;28;20051;-62
2022/09/18 02:06:42;;;;;;;0.90;0.60;;;;;;;19.65;58.61;96053.16;10291630;28;20058;-61
2022/09/18 02:12:02;;;;;;;0.63;0.60;;;;;;;19.65;58.65;96058.56;10271741;28;20066;-61
2022/09/18 02:17:36;;;;;;;0.50;0.50;;;;;;;19.65;58.55;96044.28;10296456;28;20058;-61
2022/09/18 02:22:58;;;;;;;1.08;0.60;;;;;;;19.64;58.65;96057.00;10309917;28;20053;-61
2022/09/18 02:28:21;;;;;;;0.63;0.60;;;;;;;19.64;58.69;96056.22;10308562;28;20039;-62
2022/09/18 02:33:40;;;;;;;0.80;0.40;;;;;;;19.64;58.54;96058.91;10293991;28;20055;-61
2022/09/18 02:39:14;;;;;;;0.68;0.57;;;;;;;19.62;58.56;96048.47;10301964;28;20069;-61
2022/09/18 02:44:48;;;;;;;0.68;0.50;;;;;;;19.61;58.51;96052.28;10281257;28;20058;-62
2022/09/18 02:50:15;;;;;;;0.65;0.50;;;;;;;19.61;58.61;96051.50;10297684;28;20054;-62
2022/09/18 02:55:44;;;;;;;0.50;0.50;;;;;;;19.60;58.54;96050.72;10311155;28;20054;-61
2022/09/18 03:01:04;;;;;;;0.57;0.40;;;;;;;19.60;58.59;96047.22;10291369;28;20051;-61
2022/09/18 03:06:24;;;;;;;0.60;0.50;;;;;;;19.59;58.56;96048.34;10281122;28;20059;-62
2022/09/18 03:11:44;;;;;;;1.63;0.60;;;;;;;19.59;58.52;96053.75;10307556;28;20058;-62
2022/09/18 03:17:04;;;;;;;0.40;0.40;;;;;;;19.58;58.54;96057.56;10296182;28;20531;-61
2022/09/18 03:22:24;;;;;;;0.50;0.50;;;;;;;19.55;58.46;96062.53;10295992;28;20070;-58
2022/09/18 03:27:44;;;;;;;0.88;0.60;;;;;;;19.56;58.54;96066.03;10314840;28;20042;-62
2022/09/18 03:33:09;;;;;;;0.60;0.50;;;;;;;19.55;58.23;96057.13;10299279;28;20490;-60
2022/09/18 03:38:29;;;;;;;0.50;0.50;;;;;;;19.55;58.55;96067.16;10294020;28;20054;-61
2022/09/18 03:43:50;;;;;;;0.68;0.47;;;;;;;19.53;58.57;96058.63;10300117;28;20047;-61
2022/09/18 03:49:10;;;;;;;0.45;0.40;;;;;;;19.53;58.52;96072.91;10316535;28;20089;-61
2022/09/18 03:54:32;;;;;;;0.50;0.50;;;;;;;19.53;58.56;96075.59;10310065;28;20050;-61
2022/09/18 04:00:09;;;;;;;0.50;0.50;;;;;;;19.51;58.58;96083.25;10307122;28;20050;-62
2022/09/18 04:05:35;;;;;;;0.40;0.40;;;;;;;19.51;58.55;96077.84;10292988;28;20054;-61
2022/09/18 04:11:13;;;;;;;1.10;0.85;;;;;;;19.50;58.57;96076.31;10297945;28;20134;-61
2022/09/18 04:16:33;;;;;;;0.47;0.47;;;;;;;19.50;58.43;96089.81;10291645;28;20066;-61
2022/09/18 04:21:53;;;;;;;0.45;0.45;;;;;;;19.49;58.52;96090.91;10292283;28;20053;-61
2022/09/18 04:27:14;;;;;;;0.55;0.40;;;;;;;19.49;58.53;96084.75;10291301;28;20058;-60
2022/09/18 04:32:34;;;;;;;0.70;0.50;;;;;;;19.49;58.51;96085.53;10300552;28;20051;-61
2022/09/18 04:37:55;;;;;;;0.50;0.47;;;;;;;19.47;58.33;96098.59;10290915;28;20179;-60
2022/09/18 04:43:15;;;;;;;0.73;0.40;;;;;;;19.47;58.45;96093.19;10291858;28;20051;-60
2022/09/18 04:48:36;;;;;;;0.60;0.50;;;;;;;19.46;58.40;96107.78;10304526;28;20054;-61
2022/09/18 04:53:57;;;;;;;0.52;0.47;;;;;;;19.46;58.49;96115.91;10290583;28;20133;-60
2022/09/18 04:59:18;;;;;;;0.40;0.40;;;;;;;19.43;58.41;96122.00;10290676;28;20054;-61
2022/09/18 05:04:39;;;;;;;0.40;0.40;;;;;;;19.43;58.43;96124.69;10303419;28;20043;-61
2022/09/18 05:10:09;;;;;;;0.40;0.40;;;;;;;19.42;58.42;96144.72;10304319;28;20074;-61
2022/09/18 05:15:32;;;;;;;0.80;0.57;;;;;;;19.41;58.40;96145.88;10301063;28;20062;-61
2022/09/18 05:20:55;;;;;;;0.40;0.40;;;;;;;19.41;58.40;96162.06;10303300;28;20498;-60
2022/09/18 05:26:14;;;;;;;0.45;0.43;;;;;;;19.41;58.44;96164.00;10282274;28;20050;-62
2022/09/18 05:31:34;;;;;;;0.40;0.40;;;;;;;19.40;58.37;96162.41;10308455;28;20510;-61
2022/09/18 05:36:54;;;;;;;0.40;0.40;;;;;;;19.41;58.39;96174.78;10300348;28;20054;-61
2022/09/18 05:42:14;;;;;;;1.48;0.50;;;;;;;19.39;58.38;96172.44;10305496;28;20055;-61
2022/09/18 05:47:35;;;;;;;0.50;0.40;;;;;;;19.39;58.44;96185.94;10300242;28;20058;-62
2022/09/18 05:53:04;;;;;;;0.55;0.35;;;;;;;19.37;58.43;96190.88;10296619;28;20483;-61
2022/09/18 05:58:35;;;;;;;0.40;0.40;;;;;;;19.36;58.46;96200.09;10299445;28;20105;-62
2022/09/18 06:03:55;;;;;;;1.00;0.40;;;;;;;19.37;58.42;96196.28;10309028;28;20086;-61
2022/09/18 06:09:16;;;;;;;0.47;0.47;;;;;;;19.36;58.41;96200.09;10309523;28;20100;-61
2022/09/18 06:14:36;;;;;;;0.60;0.60;;;;;;;19.35;58.38;96220.94;10296687;28;20065;-61
2022/09/18 06:19:56;;;;;;;0.47;0.40;;;;;;;19.35;58.38;96220.16;10307392;28;20042;-61
2022/09/18 06:25:18;;;;;;;0.50;0.50;;;;;;;19.34;58.43;96222.03;10335632;28;20560;-62
2022/09/18 06:30:37;;;;;;;0.73;0.43;;;;;;;19.34;58.35;96229.34;10311530;28;20059;-62
2022/09/18 06:35:57;;;;;;;0.80;0.65;;;;;;;19.33;58.33;96227.78;10316231;28;20054;-61
2022/09/18 06:41:24;;;;;;;0.40;0.40;;;;;;;19.32;58.37;96232.38;10299925;28;20050;-62
2022/09/18 06:46:46;;;;;;;0.43;0.40;;;;;;;19.31;58.38;96241.63;10315033;28;20046;-61
2022/09/18 06:52:17;;;;;;;0.50;0.40;;;;;;;19.32;58.39;96242.41;10308688;28;20047;-61
2022/09/18 06:57:38;;;;;;;0.57;0.47;;;;;;;19.31;58.39;96249.72;10305992;28;20065;-60
2022/09/18 07:03:02;;;;;;;0.30;0.30;;;;;;;19.30;58.45;96250.84;10297143;28;20531;-61
2022/09/18 07:08:44;;;;;;;0.60;0.50;;;;;;;19.29;58.42;96249.28;10277666;28;20061;-61
2022/09/18 07:14:11;;;;;;;0.65;0.50;;;;;;;19.30;58.41;96255.47;10310093;28;20057;-61
2022/09/18 07:19:31;;;;;;;0.68;0.45;;;;;;;19.29;58.33;96256.59;10307794;28;20055;-61
2022/09/18 07:24:51;;;;;;;0.40;0.40;;;;;;;19.29;58.41;96260.09;10302293;28;20067;-62
2022/09/18 07:30:11;;;;;;;0.50;0.50;;;;;;;19.30;58.53;96260.88;10300069;28;20054;-62
2022/09/18 07:35:31;;;;;;;0.35;0.35;;;;;;;19.29;58.46;96262.00;10294592;28;20054;-61
2022/09/18 07:40:54;;;;;;;0.50;0.45;;;;;;;19.27;58.50;96262.34;10292467;28;20054;-61
2022/09/18 07:46:21;;;;;;;0.77;0.60;;;;;;;19.28;58.54;96274.69;10307187;28;20081;-62
2022/09/18 07:51:44;;;;;;;0.63;0.47;;;;;;;19.28;58.59;96272.00;10295301;28;20179;-62
2022/09/18 07:57:06;;;;;;;3.30;0.55;;;;;;;19.28;58.58;96268.50;10324170;28;20054;-61
2022/09/18 08:02:39;;;;;;;3.13;0.70;;;;;;;19.28;58.67;96288.19;10295003;28;20047;-61
2022/09/18 08:08:06;;;;;;;5.28;0.80;;;;;;;19.28;58.74;96282.78;10294549;28;20113;-60
2022/09/18 08:13:48;;;;;;;4.20;0.70;;;;;;;19.27;58.92;96278.53;10293221;28;20058;-61
2022/09/18 08:19:26;;;;;;;1.92;0.63;;;;;;;19.27;58.79;96283.94;10308825;28;20042;-61
2022/09/18 08:24:53;;;;;;;1.25;0.77;;;;;;;19.28;58.93;96285.50;10286079;28;20068;-62
2022/09/18 08:30:14;;;;;;;1.70;0.50;;;;;;;19.28;59.05;96282.00;10307309;28;20411;-61
2022/09/18 08:35:34;;;;;;;2.15;0.57;;;;;;;19.27;59.25;96291.25;10290709;28;20058;-62
2022/09/18 08:41:22;;;;;;;1.67;0.60;;;;;;;19.26;59.30;96287.75;10302075;28;20047;-62
2022/09/18 08:46:48;;;;;;;4.57;0.50;;;;;;;19.25;59.23;96283.47;10294518;28;20101;-62
2022/09/18 08:52:19;;;;;;;2.08;0.65;;;;;;;19.26;59.24;96295.06;10292616;28;20059;-61
2022/09/18 08:57:47;;;;;;;1.98;0.70;;;;;;;19.25;59.30;96304.28;10281036;28;20059;-62
2022/09/18 09:03:18;;;;;;;2.28;0.55;;;;;;;19.25;59.36;96299.69;10310586;28;20058;-61
2022/09/18 09:09:05;;;;;;;2.28;0.70;;;;;;;19.25;59.20;96290.78;10293484;28;20117;-62
2022/09/18 09:14:48;;;;;;;2.58;0.60;;;;;;;19.25;59.12;96282.66;10285862;28;20065;-62
2022/09/18 09:20:24;;;;;;;0.88;0.50;;;;;;;19.25;59.28;96279.97;10326309;28;20058;-61
2022/09/18 09:26:05;;;;;;;1.40;0.57;;;;;;;19.25;59.45;96271.88;10291357;28;20051;-62
2022/09/18 09:31:52;;;;;;;0.50;0.50;;;;;;;19.24;59.55;96279.19;10321492;28;20047;-61
2022/09/18 09:37:22;;;;;;;2.28;0.77;;;;;;;19.25;59.32;96275.38;10297950;28;20067;-63
2022/09/18 09:42:52;;;;;;;6.95;5.68;;;;;;;19.25;59.82;96290.78;10302169;28;20046;-62
2022/09/18 09:48:25;;;;;;;155.48;59.83;;;;;;;19.25;60.35;96293.47;10303703;28;20051;-62
2022/09/18 09:53:45;;;;;;;92.07;37.60;;;;;;;19.25;60.58;96290.78;10296241;28;20097;-62
2022/09/18 09:59:27;;;;;;;55.97;24.02;;;;;;;19.25;60.37;96286.19;10310473;28;20062;-63
2022/09/18 10:05:37;;;;;;;23.50;9.35;;;;;;;19.19;55.55;96281.31;10302247;28;20053;-63
2022/09/18 10:10:59;;;;;;;20.17;7.88;;;;;;;19.13;54.54;96300.44;10312978;28;20113;-62
2022/09/18 10:16:25;;;;;;;17.63;6.25;;;;;;;19.12;53.70;96298.84;10307694;28;20054;-62
2022/09/18 10:21:47;;;;;;;8.27;3.72;;;;;;;19.08;50.67;96302.56;10293745;28;20490;-63
2022/09/18 10:27:11;;;;;;;5.10;2.92;;;;;;;18.98;48.48;96294.88;10311741;28;20050;-64
2022/09/18 10:32:34;;;;;;;4.55;2.53;;;;;;;18.95;48.87;96329.53;10310256;28;20376;-60
2022/09/18 10:37:57;;;;;;;5.68;2.30;;;;;;;18.99;49.67;96315.34;10311258;28;20051;-62
2022/09/18 10:43:22;;;;;;;4.90;1.92;;;;;;;18.95;47.67;96296.31;10301764;28;20054;-63
2022/09/18 10:48:47;;;;;;;6.85;2.35;;;;;;;18.95;47.67;96296.31;10295751;28;20051;-62
2022/09/18 10:54:21;;;;;;;6.47;2.85;;;;;;;19.00;51.24;96312.31;10307285;28;20379;-62
2022/09/18 10:59:56;;;;;;;8.10;2.85;;;;;;;19.02;52.12;96304.66;10280904;28;20059;-61
2022/09/18 11:05:23;;;;;;;8.20;3.75;;;;;;;19.03;52.88;96295.44;10286403;28;20501;-61
2022/09/18 11:10:49;;;;;;;10.32;3.97;;;;;;;19.05;53.84;96308.59;10282489;28;20054;-61
2022/09/18 11:16:09;;;;;;;2.38;1.50;;;;;;;18.97;48.83;96288.69;10293957;28;20069;-62
2022/09/18 11:21:31;;;;;;;5.75;2.42;;;;;;;18.82;46.31;96286.59;10291717;28;20051;-61
2022/09/18 11:26:53;;;;;;;2.65;2.00;;;;;;;18.74;46.50;96272.06;10304944;28;20051;-61
2022/09/18 11:32:25;;;;;;;3.58;2.53;;;;;;;18.78;49.22;96265.66;10293087;28;20047;-62
2022/09/18 11:37:51;;;;;;;4.13;2.53;;;;;;;18.86;50.83;96260.53;10293134;28;20079;-61
2022/09/18 11:43:16;;;;;;;4.13;2.50;;;;;;;18.91;52.21;96254.91;10308110;28;20047;-62
2022/09/18 11:48:42;;;;;;;4.22;2.80;;;;;;;18.97;53.82;96256.28;10313573;28;20099;-62
2022/09/18 11:54:06;;;;;;;5.97;3.38;;;;;;;19.00;55.27;96258.31;10306961;28;20061;-62
2022/09/18 11:59:48;;;;;;;4.95;3.33;;;;;;;19.04;57.30;96256.53;10277677;28;20403;-62
2022/09/18 12:05:32;;;;;;;6.13;3.50;;;;;;;19.09;58.70;96267.13;10262410;28;20524;-61
2022/09/18 12:11:14;;;;;;;4.72;3.13;;;;;;;19.10;59.29;96252.50;10310237;28;20054;-61
2022/09/18 12:16:43;;;;;;;2.72;2.10;;;;;;;19.12;58.35;96262.97;10316191;28;20058;-64
2022/09/18 12:22:16;;;;;;;4.97;2.40;;;;;;;19.09;56.90;96250.94;10303852;28;20054;-62
2022/09/18 12:27:59;;;;;;;6.22;2.50;;;;;;;19.10;57.89;96257.13;10284926;28;20133;-62
2022/09/18 12:33:44;;;;;;;6.53;2.10;;;;;;;19.10;58.16;96263.28;10266399;28;20055;-61
2022/09/18 12:39:13;;;;;;;3.22;2.20;;;;;;;19.11;58.16;96270.28;10294906;28;20430;-61
2022/09/18 12:44:43;;;;;;;3.47;2.20;;;;;;;19.10;58.16;96262.50;10318814;28;20051;-61
2022/09/18 12:50:05;;;;;;;4.22;2.22;;;;;;;19.11;58.14;96274.88;10304464;28;20034;-61
2022/09/18 12:55:38;;;;;;;4.18;2.00;;;;;;;19.10;58.43;96268.69;10296440;28;20510;-62
2022/09/18 13:01:02;;;;;;;9.35;2.45;;;;;;;19.11;58.63;96259.50;10290763;28;20065;-62
2022/09/18 13:06:38;;;;;;;6.30;2.53;;;;;;;19.12;58.82;96249.47;10284317;28;20055;-61
2022/09/18 13:12:03;;;;;;;5.47;2.47;;;;;;;19.12;58.72;96260.28;10293935;28;20120;-61
2022/09/18 13:17:36;;;;;;;3.42;2.25;;;;;;;19.12;58.87;96247.56;10273873;28;20137;-61
2022/09/18 13:22:56;;;;;;;24.02;21.92;;;;;;;19.13;59.07;96245.63;10290556;28;20125;-61
2022/09/18 13:28:17;;;;;;;8.30;4.78;;;;;;;19.11;58.14;96231.69;10287584;28;20055;-62
2022/09/18 13:33:36;;;;;;;7.82;5.82;;;;;;;19.10;57.89;96239.00;10285552;28;20054;-62
2022/09/18 13:38:59;;;;;;;8.20;4.80;;;;;;;19.10;58.54;96247.09;10285482;28;20062;-61
2022/09/18 13:44:24;;;;;;;5.40;4.13;;;;;;;19.10;58.49;96246.31;10268140;28;20130;-61
2022/09/18 13:49:50;;;;;;;6.43;4.30;;;;;;;19.10;58.64;96241.69;10282447;28;20055;-62
2022/09/18 13:55:12;;;;;;;4.75;3.50;;;;;;;19.10;58.89;96244.41;10297686;28;20051;-63
2022/09/18 14:00:31;;;;;;;5.07;3.22;;;;;;;19.10;58.67;96230.91;10304727;28;20034;-61
2022/09/18 14:05:51;;;;;;;4.95;2.72;;;;;;;19.09;58.08;96242.84;10293221;28;20058;-61
2022/09/18 14:11:11;;;;;;;5.78;2.95;;;;;;;19.08;58.12;96232.38;10277344;28;20063;-61
2022/09/18 14:16:37;;;;;;;5.53;2.50;;;;;;;19.08;58.21;96233.16;10300019;28;20042;-59
2022/09/18 14:21:58;;;;;;;7.88;2.30;;;;;;;19.08;58.43;96241.25;10298567;28;20055;-63
2022/09/18 14:27:34;;;;;;;7.03;2.30;;;;;;;19.09;58.42;96228.53;10264959;28;20495;-61
2022/09/18 14:32:56;;;;;;;6.88;2.30;;;;;;;19.09;58.54;96234.75;10302849;28;20043;-60
2022/09/18 14:38:26;;;;;;;7.03;2.30;;;;;;;19.09;58.77;96229.34;10296354;28;20061;-60
2022/09/18 14:43:52;;;;;;;3.03;1.85;;;;;;;19.08;58.44;96219.66;10271289;28;20134;-61
2022/09/18 14:49:35;;;;;;;4.30;1.50;;;;;;;19.07;58.44;96220.78;10284506;28;20614;-60
2022/09/18 14:54:57;;;;;;;5.00;1.90;;;;;;;19.08;58.55;96210.75;10292186;28;20047;-61
2022/09/18 15:00:24;;;;;;;3.42;1.38;;;;;;;19.09;58.59;96220.44;10287149;28;20419;-59
2022/09/18 15:05:49;;;;;;;2.95;1.58;;;;;;;19.08;58.72;96216.94;10271741;28;20070;-58
2022/09/18 15:11:13;;;;;;;2.63;1.60;;;;;;;19.08;58.71;96211.53;10272198;28;20540;-57
2022/09/18 15:16:33;;;;;;;4.03;1.42;;;;;;;19.08;58.91;96210.75;10344352;28;20509;-58
2022/09/18 15:21:53;;;;;;;3.63;1.80;;;;;;;19.07;58.93;96209.19;10325829;28;20050;-58
2022/09/18 15:27:14;;;;;;;4.07;1.73;;;;;;;19.07;59.10;96210.00;10306246;28;20086;-60
2022/09/18 15:32:37;;;;;;;4.55;1.98;;;;;;;19.08;59.18;96210.75;10293312;28;20055;-61
2022/09/18 15:37:59;;;;;;;9.43;2.90;;;;;;;19.09;59.36;96202.34;10296642;28;20055;-60
2022/09/18 15:43:28;;;;;;;5.45;2.10;;;;;;;19.07;59.50;96199.19;10298282;28;20097;-62
2022/09/18 15:48:47;;;;;;;6.80;2.10;;;;;;;19.09;59.81;96201.53;10297929;28;20395;-62
2022/09/18 15:54:11;;;;;;;7.88;2.80;;;;;;;19.10;59.98;96195.03;10325040;28;20074;-62
2022/09/18 15:59:33;;;;;;;5.20;2.22;;;;;;;19.10;60.34;96197.72;10309135;28;20388;-62
2022/09/18 16:04:53;;;;;;;5.78;2.10;;;;;;;19.11;60.47;96193.88;10305846;28;20401;-62
2022/09/18 16:10:47;;;;;;;6.63;2.33;;;;;;;19.11;60.71;96199.28;10293239;28;20054;-61
2022/09/18 16:16:07;;;;;;;6.82;2.13;;;;;;;19.12;60.65;96195.47;10268805;28;20431;-60
2022/09/18 16:21:28;;;;;;;8.20;2.50;;;;;;;19.11;60.79;96188.47;10334956;28;20096;-62
2022/09/18 16:26:47;;;;;;;4.05;1.98;;;;;;;19.12;61.10;96182.75;10305848;28;20047;-61
2022/09/18 16:32:10;;;;;;;7.78;2.17;;;;;;;19.13;60.96;96184.34;10332219;28;20127;-62
2022/09/18 16:37:29;;;;;;;7.57;2.20;;;;;;;19.12;61.41;96185.44;10330961;28;20050;-60
2022/09/18 16:42:49;;;;;;;6.90;2.05;;;;;;;19.12;61.54;96180.06;10287838;28;20058;-61
2022/09/18 16:48:08;;;;;;;7.10;2.10;;;;;;;19.13;61.88;96170.03;10317822;28;20066;-61
2022/09/18 16:53:28;;;;;;;7.05;2.22;;;;;;;19.12;62.09;96161.16;10310468;28;20048;-60
2022/09/18 16:58:47;;;;;;;4.45;2.10;;;;;;;19.14;62.20;96158.91;10327035;28;20053;-60
2022/09/18 17:04:06;;;;;;;7.90;1.92;;;;;;;19.14;62.20;96145.41;10339471;28;20532;-62
2022/09/18 17:09:26;;;;;;;11.32;1.90;;;;;;;19.13;62.35;96140.34;10319369;28;20101;-59
2022/09/18 17:14:45;;;;;;;8.57;2.00;;;;;;;19.13;62.09;96145.72;10321772;28;20051;-59
2022/09/18 17:20:06;;;;;;;2.78;1.63;;;;;;;19.12;62.09;96134.16;10287516;28;20137;-63
2022/09/18 17:25:26;;;;;;;9.05;1.92;;;;;;;19.12;61.88;96139.56;10329521;28;20076;-63
2022/09/18 17:30:46;;;;;;;5.50;2.03;;;;;;;19.12;62.07;96133.38;10316322;28;20051;-62
2022/09/18 17:36:08;;;;;;;7.07;1.85;;;;;;;19.13;62.00;96130.34;10326329;28;20054;-60
2022/09/18 17:41:27;;;;;;;5.35;1.70;;;;;;;19.12;62.11;96131.47;10322277;28;20046;-60
2022/09/18 17:46:50;;;;;;;9.18;1.70;;;;;;;19.13;62.14;96135.75;10343795;28;20035;-59
2022/09/18 17:52:09;;;;;;;7.40;2.10;;;;;;;19.12;62.16;96128.75;10331212;28;20047;-60
2022/09/18 17:57:29;;;;;;;7.97;1.63;;;;;;;19.13;62.19;96124.13;10326144;28;20506;-60
2022/09/18 18:02:49;;;;;;;6.50;2.30;;;;;;;19.13;62.28;96129.53;10336514;28;20047;-59
2022/09/18 18:08:09;;;;;;;7.25;1.60;;;;;;;19.14;62.15;96134.59;10313231;28;20088;-59
2022/09/18 18:13:28;;;;;;;3.67;1.40;;;;;;;19.12;62.20;96131.47;10330122;28;20054;-60
2022/09/18 18:18:54;;;;;;;6.22;1.40;;;;;;;19.12;62.17;96142.25;10334688;28;20042;-60
2022/09/18 18:24:15;;;;;;;4.78;1.38;;;;;;;19.12;61.99;96144.94;10330173;28;20108;-61
2022/09/18 18:29:38;;;;;;;6.72;1.77;;;;;;;19.13;62.17;96154.66;10343093;28;20038;-60
2022/09/18 18:34:57;;;;;;;6.78;1.48;;;;;;;19.14;62.14;96158.91;10334669;28;20087;-60
2022/09/18 18:40:16;;;;;;;5.28;1.48;;;;;;;19.14;62.04;96152.72;10329290;28;20058;-61
2022/09/18 18:45:36;;;;;;;5.95;1.55;;;;;;;19.15;62.12;96167.78;10333716;28;20072;-61
2022/09/18 18:50:58;;;;;;;5.03;1.33;;;;;;;19.13;62.13;96170.84;10346586;28;20037;-61
2022/09/18 18:56:17;;;;;;;4.38;1.40;;;;;;;19.13;62.12;96181.63;10327602;28;20097;-61
2022/09/18 19:01:38;;;;;;;6.03;1.50;;;;;;;19.13;62.02;96187.03;10311108;28;20109;-61
2022/09/18 19:06:57;;;;;;;3.80;1.40;;;;;;;19.15;62.21;96181.28;10327084;28;20533;-61
2022/09/18 19:12:17;;;;;;;4.63;1.52;;;;;;;19.14;62.02;96179.72;10325460;28;20065;-61
2022/09/18 19:17:36;;;;;;;5.78;1.45;;;;;;;19.14;62.15;96187.81;10319632;28;20050;-62
2022/09/18 19:22:55;;;;;;;4.53;1.58;;;;;;;19.15;62.19;96202.88;10328635;28;20046;-60
2022/09/18 19:28:15;;;;;;;3.42;1.30;;;;;;;19.15;62.31;96189.38;10305845;28;20065;-64
2022/09/18 19:33:35;;;;;;;2.30;1.23;;;;;;;19.13;62.14;96189.75;10344035;28;20482;-64
2022/09/18 19:38:56;;;;;;;3.55;1.30;;;;;;;19.14;62.02;96193.22;10305188;28;20054;-64
2022/09/18 19:44:39;;;;;;;2.45;1.23;;;;;;;19.12;62.01;96198.94;10326047;28;20057;-62
2022/09/18 19:50:01;;;;;;;2.55;1.20;;;;;;;19.13;62.11;96199.72;10296929;28;20059;-62
2022/09/18 19:55:20;;;;;;;4.47;1.33;;;;;;;19.12;61.91;96198.94;10290477;28;20102;-62
2022/09/18 20:00:41;;;;;;;9.48;1.25;;;;;;;19.11;61.40;96194.69;10296028;28;20383;-62
2022/09/18 20:06:01;;;;;;;2.47;1.15;;;;;;;19.09;61.06;96191.53;10316483;28;20100;-62
2022/09/18 20:11:20;;;;;;;1.55;1.05;;;;;;;19.09;61.61;96191.53;10324839;28;20165;-63
2022/09/18 20:16:40;;;;;;;3.05;1.13;;;;;;;19.09;61.43;96183.44;10315783;28;20081;-63
2022/09/18 20:22:01;;;;;;;1.73;1.05;;;;;;;19.09;61.16;96175.34;10315459;28;20046;-64
2022/09/18 20:27:22;;;;;;;4.05;1.40;;;;;;;19.08;61.24;96173.75;10302905;28;20062;-63
2022/09/18 20:32:41;;;;;;;1.52;1.02;;;;;;;19.08;61.07;96162.94;10292754;28;20098;-63
2022/09/18 20:38:02;;;;;;;3.97;1.10;;;;;;;19.09;61.07;96169.94;10319449;28;20403;-63
2022/09/18 20:43:22;;;;;;;1.50;0.93;;;;;;;19.08;61.18;96162.94;10308569;28;20046;-63
2022/09/18 20:48:45;;;;;;;3.05;1.00;;;;;;;19.09;61.07;96161.03;10290611;28;20454;-63
2022/09/18 20:54:06;;;;;;;2.97;1.10;;;;;;;19.08;60.92;96164.88;10291088;28;20056;-63
2022/09/18 20:59:26;;;;;;;2.88;1.02;;;;;;;19.08;60.85;96154.06;10296491;28;20050;-63
2022/09/18 21:04:49;;;;;;;2.28;1.02;;;;;;;19.08;60.85;96154.84;10302556;28;20101;-64
2022/09/18 21:10:13;;;;;;;2.72;0.95;;;;;;;19.08;60.69;96154.84;10302430;28;20458;-63
2022/09/18 21:15:33;;;;;;;2.15;1.20;;;;;;;19.08;60.65;96152.16;10313071;28;20046;-63
2022/09/18 21:21:03;;;;;;;2.05;1.02;;;;;;;19.10;60.46;96152.59;10321807;28;20055;-63
2022/09/18 21:26:34;;;;;;;2.17;1.00;;;;;;;19.10;60.56;96141.81;10295530;28;20061;-63
2022/09/18 21:31:56;;;;;;;1.83;0.90;;;;;;;19.11;60.52;96137.19;10303659;28;20054;-63
2022/09/18 21:37:17;;;;;;;2.80;1.20;;;;;;;19.10;60.39;96141.81;10298085;28;20491;-63
2022/09/18 21:42:37;;;;;;;1.80;1.20;;;;;;;19.10;60.56;96139.09;10332671;28;20054;-63
2022/09/18 21:47:57;;;;;;;1.85;0.98;;;;;;;19.10;60.38;96138.31;10325620;28;20129;-63
2022/09/18 21:53:16;;;;;;;2.25;1.00;;;;;;;19.10;60.36;96149.91;10306098;28;20053;-64
2022/09/18 21:58:36;;;;;;;1.25;0.90;;;;;;;19.11;60.43;96139.88;10298219;28;20055;-64
2022/09/18 22:03:58;;;;;;;2.15;1.00;;;;;;;19.10;60.29;96139.09;10300405;28;20053;-63
2022/09/18 22:09:21;;;;;;;2.67;0.80;;;;;;;19.10;60.36;96128.31;10307764;28;20055;-64
2022/09/18 22:14:40;;;;;;;0.80;0.73;;;;;;;19.12;60.30;96127.97;10297367;28;20061;-63
2022/09/18 22:19:59;;;;;;;1.35;1.00;;;;;;;19.12;60.20;96127.97;10313929;28;20487;-60
2022/09/18 22:25:19;;;;;;;1.65;1.00;;;;;;;19.11;60.20;96132.59;10320336;28;20415;-64
2022/09/18 22:30:38;;;;;;;2.13;0.93;;;;;;;19.12;60.20;96134.16;10310015;28;20059;-61
2022/09/18 22:36:03;;;;;;;0.98;0.70;;;;;;;19.12;60.14;96130.69;10314977;28;20047;-64
2022/09/18 22:41:23;;;;;;;1.23;0.85;;;;;;;19.11;60.29;96129.91;10298850;28;20114;-64
2022/09/18 22:46:44;;;;;;;1.40;0.70;;;;;;;19.11;60.19;96116.41;10331176;28;20057;-63
2022/09/18 22:52:03;;;;;;;1.13;0.70;;;;;;;19.12;60.25;96120.66;10296346;28;20058;-63
2022/09/18 22:57:22;;;;;;;0.90;0.70;;;;;;;19.13;60.12;96121.44;10294963;28;20055;-63
2022/09/18 23:02:42;;;;;;;1.13;0.82;;;;;;;19.12;60.19;96128.75;10295310;28;20403;-63
2022/09/18 23:08:01;;;;;;;1.00;0.68;;;;;;;19.12;60.17;96136.06;10304721;28;20050;-63
2022/09/18 23:13:21;;;;;;;0.82;0.63;;;;;;;19.12;60.08;96136.84;10305817;28;20121;-63
2022/09/18 23:18:46;;;;;;;1.13;0.82;;;;;;;19.12;60.13;96134.16;10303590;28;20058;-63
2022/09/18 23:24:06;;;;;;;0.88;0.70;;;;;;;19.11;60.11;96129.91;10312385;28;20526;-64
2022/09/18 23:29:27;;;;;;;1.02;0.70;;;;;;;19.12;60.09;96134.16;10340872;28;20085;-64
2022/09/18 23:34:46;;;;;;;1.00;0.60;;;;;;;19.12;60.15;96130.69;10287431;28;20059;-63
2022/09/18 23:40:06;;;;;;;1.08;0.80;;;;;;;19.11;60.14;96129.91;10294189;28;20055;-64
2022/09/18 23:45:26;;;;;;;1.42;0.77;;;;;;;19.12;60.03;96119.88;10297118;28;20050;-64
2022/09/18 23:50:46;;;;;;;0.90;0.70;;;;;;;19.11;60.02;96118.28;10306450;28;20498;-63
2022/09/18 23:56:08;;;;;;;0.70;0.60;;;;;;;19.11;59.96;96129.91;10296422;28;20054;-63
